createdAt,value
2019-02-23T00:00:36.328Z,83.65
2019-02-23T00:01:36.372Z,83.65
2019-02-23T00:02:36.298Z,83.74
2019-02-23T00:03:36.282Z,84.50
2019-02-23T00:04:36.269Z,84.41
2019-02-23T00:05:36.252Z,84.12
2019-02-23T00:06:36.235Z,84.46
2019-02-23T00:07:36.217Z,83.94
2019-02-23T00:08:36.205Z,83.98
2019-02-23T00:09:36.189Z,84.27
2019-02-23T00:10:36.167Z,84.55
2019-02-23T00:11:36.159Z,84.74
2019-02-23T00:12:36.141Z,85.13
2019-02-23T00:13:36.125Z,85.03
2019-02-23T00:14:36.102Z,85.31
2019-02-23T00:15:36.088Z,84.74
2019-02-23T00:16:36.070Z,83.70
2019-02-23T00:17:36.060Z,83.61
2019-02-23T00:18:36.038Z,83.42
2019-02-23T00:19:36.027Z,83.04
2019-02-23T00:20:36.009Z,83.13
2019-02-23T00:21:35.998Z,83.32
2019-02-23T00:22:35.976Z,83.13
2019-02-23T00:23:35.970Z,82.85
2019-02-23T00:24:35.950Z,83.04
2019-02-23T00:25:35.932Z,82.94
2019-02-23T00:26:35.912Z,82.94
2019-02-23T00:27:35.900Z,83.23
2019-02-23T00:28:35.880Z,83.13
2019-02-23T00:29:35.872Z,83.04
2019-02-23T00:30:35.845Z,83.42
2019-02-23T00:31:35.835Z,83.32
2019-02-23T00:32:35.820Z,83.89
2019-02-23T00:33:35.805Z,83.70
2019-02-23T00:34:35.785Z,83.89
2019-02-23T00:35:35.774Z,84.36
2019-02-23T00:36:35.753Z,84.08
2019-02-23T00:37:35.739Z,84.17
2019-02-23T00:38:35.725Z,84.36
2019-02-23T00:39:35.707Z,84.27
2019-02-23T00:40:35.688Z,84.17
2019-02-23T00:41:35.674Z,84.65
2019-02-23T00:42:35.662Z,84.74
2019-02-23T00:43:35.642Z,84.55
2019-02-23T00:44:35.628Z,84.17
2019-02-23T00:45:35.604Z,84.70
2019-02-23T00:46:35.595Z,84.55
2019-02-23T00:47:35.584Z,84.70
2019-02-23T00:48:35.557Z,84.51
2019-02-23T00:49:36.685Z,84.61
2019-02-23T00:50:35.534Z,84.99
2019-02-23T00:51:35.519Z,84.99
2019-02-23T00:52:35.506Z,85.46
2019-02-23T00:53:35.484Z,85.74
2019-02-23T00:54:35.467Z,85.36
2019-02-23T00:55:35.447Z,85.74
2019-02-23T00:56:35.430Z,85.36
2019-02-23T00:57:35.411Z,85.17
2019-02-23T00:58:35.401Z,85.84
2019-02-23T00:59:35.390Z,86.31
2019-02-23T01:00:35.368Z,85.84
2019-02-23T01:01:35.359Z,86.03
2019-02-23T01:02:35.337Z,86.03
2019-02-23T01:03:35.316Z,85.65
2019-02-23T01:04:35.302Z,85.65
2019-02-23T01:05:35.287Z,85.74
2019-02-23T01:06:35.268Z,85.84
2019-02-23T01:07:35.257Z,85.36
2019-02-23T01:08:35.240Z,85.17
2019-02-23T01:09:35.222Z,84.99
2019-02-23T01:10:35.205Z,84.80
2019-02-23T01:11:35.185Z,85.08
2019-02-23T01:12:35.169Z,84.80
2019-02-23T01:13:35.157Z,84.51
2019-02-23T01:14:35.139Z,83.94
2019-02-23T01:15:35.121Z,83.47
2019-02-23T01:16:35.105Z,83.47
2019-02-23T01:17:35.089Z,82.81
2019-02-23T01:18:35.077Z,82.71
2019-02-23T01:19:35.062Z,82.14
2019-02-23T01:20:35.048Z,82.43
2019-02-23T01:21:35.023Z,81.86
2019-02-23T01:22:35.010Z,82.14
2019-02-23T01:23:35.003Z,82.33
2019-02-23T01:24:34.980Z,82.33
2019-02-23T01:25:34.961Z,82.24
2019-02-23T01:26:34.947Z,82.24
2019-02-23T01:27:34.921Z,82.24
2019-02-23T01:28:34.911Z,82.33
2019-02-23T01:29:34.896Z,82.33
2019-02-23T01:30:34.874Z,82.43
2019-02-23T01:31:34.857Z,81.95
2019-02-23T01:32:34.846Z,82.14
2019-02-23T01:33:34.832Z,81.86
2019-02-23T01:34:34.809Z,81.76
2019-02-23T01:35:34.793Z,81.67
2019-02-23T01:36:34.781Z,81.48
2019-02-23T01:37:34.761Z,81.76
2019-02-23T01:38:34.743Z,81.38
2019-02-23T01:39:34.731Z,81.57
2019-02-23T01:40:34.709Z,81.57
2019-02-23T01:41:34.702Z,81.48
2019-02-23T01:42:34.678Z,81.95
2019-02-23T01:43:34.663Z,81.76
2019-02-23T01:44:34.651Z,82.05
2019-02-23T01:45:42.147Z,82.14
2019-02-23T01:46:34.614Z,82.14
2019-02-23T01:47:34.596Z,82.14
2019-02-23T01:48:34.576Z,82.05
2019-02-23T01:49:34.568Z,81.67
2019-02-23T01:50:34.551Z,81.29
2019-02-23T01:51:34.527Z,81.57
2019-02-23T01:52:34.527Z,81.10
2019-02-23T01:53:34.502Z,81.20
2019-02-23T01:54:34.484Z,81.10
2019-02-23T01:55:34.471Z,81.20
2019-02-23T01:56:34.452Z,81.38
2019-02-23T01:57:34.428Z,81.20
2019-02-23T01:58:34.409Z,81.10
2019-02-23T01:59:34.399Z,80.44
2019-02-23T02:00:34.389Z,80.44
2019-02-23T02:01:34.366Z,80.63
2019-02-23T02:02:34.349Z,80.53
2019-02-23T02:03:34.335Z,80.53
2019-02-23T02:04:34.315Z,80.06
2019-02-23T02:05:34.304Z,80.53
2019-02-23T02:06:34.285Z,80.53
2019-02-23T02:07:34.265Z,80.72
2019-02-23T02:08:34.254Z,80.53
2019-02-23T02:09:34.238Z,80.25
2019-02-23T02:10:34.220Z,80.25
2019-02-23T02:11:34.203Z,80.34
2019-02-23T02:12:34.184Z,80.82
2019-02-23T02:13:34.170Z,80.72
2019-02-23T02:14:34.145Z,79.87
2019-02-23T02:15:34.138Z,79.87
2019-02-23T02:16:34.118Z,80.72
2019-02-23T02:17:34.104Z,80.53
2019-02-23T02:18:34.088Z,80.63
2019-02-23T02:19:34.071Z,80.72
2019-02-23T02:20:34.053Z,80.91
2019-02-23T02:21:34.039Z,80.44
2019-02-23T02:22:34.020Z,80.53
2019-02-23T02:23:34.002Z,80.44
2019-02-23T02:24:33.995Z,80.15
2019-02-23T02:25:33.970Z,79.96
2019-02-23T02:26:33.955Z,79.87
2019-02-23T02:27:33.935Z,79.87
2019-02-23T02:28:33.923Z,79.74
2019-02-23T02:29:33.900Z,79.77
2019-02-23T02:30:33.889Z,79.45
2019-02-23T02:31:33.870Z,79.74
2019-02-23T02:32:33.848Z,79.74
2019-02-23T02:33:33.839Z,79.36
2019-02-23T02:34:33.817Z,80.02
2019-02-23T02:35:33.804Z,79.74
2019-02-23T02:36:33.788Z,79.83
2019-02-23T02:37:33.774Z,79.93
2019-02-23T02:38:33.755Z,79.64
2019-02-23T02:39:33.741Z,79.74
2019-02-23T02:40:33.719Z,79.83
2019-02-23T02:41:33.706Z,79.64
2019-02-23T02:42:33.689Z,80.21
2019-02-23T02:43:33.671Z,79.64
2019-02-23T02:44:33.655Z,79.26
2019-02-23T02:45:33.639Z,79.17
2019-02-23T02:46:33.619Z,79.93
2019-02-23T02:47:33.610Z,79.55
2019-02-23T02:48:33.589Z,79.83
2019-02-23T02:49:33.574Z,79.93
2019-02-23T02:50:33.554Z,79.83
2019-02-23T02:51:33.537Z,79.83
2019-02-23T02:52:33.523Z,79.64
2019-02-23T02:53:33.504Z,80.02
2019-02-23T02:54:33.503Z,79.45
2019-02-23T02:55:33.469Z,79.26
2019-02-23T02:56:33.451Z,79.26
2019-02-23T02:57:33.437Z,80.02
2019-02-23T02:58:33.422Z,80.02
2019-02-23T02:59:33.404Z,79.64
2019-02-23T03:00:33.387Z,80.11
2019-02-23T03:01:33.369Z,79.64
2019-02-23T03:02:33.361Z,79.93
2019-02-23T03:03:33.335Z,79.64
2019-02-23T03:04:33.319Z,79.17
2019-02-23T03:05:33.303Z,79.36
2019-02-23T03:06:33.289Z,79.36
2019-02-23T03:07:33.276Z,79.36
2019-02-23T03:08:33.248Z,78.98
2019-02-23T03:09:33.234Z,79.45
2019-02-23T03:10:33.222Z,79.36
2019-02-23T03:11:33.200Z,78.88
2019-02-23T03:12:33.187Z,78.69
2019-02-23T03:13:33.168Z,78.22
2019-02-23T03:14:33.152Z,78.22
2019-02-23T03:15:33.130Z,78.13
2019-02-23T03:16:33.118Z,78.31
2019-02-23T03:17:33.101Z,78.59
2019-02-23T03:18:33.079Z,77.84
2019-02-23T03:19:33.067Z,78.31
2019-02-23T03:20:36.642Z,78.50
2019-02-23T03:21:33.035Z,78.41
2019-02-23T03:22:33.020Z,78.41
2019-02-23T03:23:33.000Z,78.41
2019-02-23T03:24:32.980Z,78.03
2019-02-23T03:25:32.965Z,77.84
2019-02-23T03:26:32.950Z,78.59
2019-02-23T03:27:32.928Z,78.03
2019-02-23T03:28:32.916Z,78.13
2019-02-23T03:29:32.897Z,78.69
2019-02-23T03:30:32.914Z,78.69
2019-02-23T03:31:33.034Z,78.79
2019-02-23T03:32:32.851Z,78.22
2019-02-23T03:33:32.832Z,78.69
2019-02-23T03:34:32.809Z,78.41
2019-02-23T03:35:32.808Z,78.31
2019-02-23T03:36:32.778Z,78.69
2019-02-23T03:37:32.761Z,78.79
2019-02-23T03:38:32.748Z,79.17
2019-02-23T03:39:32.727Z,78.88
2019-02-23T03:40:32.714Z,79.13
2019-02-23T03:41:32.691Z,79.26
2019-02-23T03:42:32.734Z,78.88
2019-02-23T03:43:32.662Z,78.75
2019-02-23T03:44:32.642Z,79.32
2019-02-23T03:45:32.624Z,79.03
2019-02-23T03:46:32.603Z,79.60
2019-02-23T03:47:32.595Z,79.41
2019-02-23T03:48:32.575Z,79.88
2019-02-23T03:49:32.558Z,79.50
2019-02-23T03:50:32.542Z,79.88
2019-02-23T03:51:32.539Z,80.55
2019-02-23T03:52:32.515Z,80.26
2019-02-23T03:53:32.495Z,80.17
2019-02-23T03:54:32.473Z,80.83
2019-02-23T03:55:32.457Z,79.50
2019-02-23T03:56:32.440Z,80.26
2019-02-23T03:57:32.422Z,80.74
2019-02-23T03:58:32.404Z,80.74
2019-02-23T03:59:32.392Z,80.55
2019-02-23T04:00:32.370Z,80.74
2019-02-23T04:01:32.349Z,81.30
2019-02-23T04:02:32.333Z,81.02
2019-02-23T04:03:32.315Z,80.55
2019-02-23T04:04:32.298Z,80.64
2019-02-23T04:05:32.282Z,80.83
2019-02-23T04:06:32.267Z,81.49
2019-02-23T04:07:32.251Z,81.02
2019-02-23T04:08:32.229Z,80.83
2019-02-23T04:09:32.215Z,81.12
2019-02-23T04:10:32.194Z,81.02
2019-02-23T04:11:32.179Z,81.12
2019-02-23T04:12:32.161Z,81.02
2019-02-23T04:13:32.145Z,81.12
2019-02-23T04:14:32.123Z,80.93
2019-02-23T04:15:32.109Z,80.83
2019-02-23T04:16:32.105Z,81.21
2019-02-23T04:17:32.082Z,81.21
2019-02-23T04:18:32.060Z,81.96
2019-02-23T04:19:32.050Z,81.02
2019-02-23T04:20:32.018Z,81.02
2019-02-23T04:21:32.015Z,81.12
2019-02-23T04:22:31.989Z,80.36
2019-02-23T04:23:31.972Z,80.45
2019-02-23T04:24:31.955Z,80.93
2019-02-23T04:25:31.935Z,79.60
2019-02-23T04:26:31.921Z,79.50
2019-02-23T04:27:31.903Z,79.69
2019-02-23T04:28:31.883Z,79.50
2019-02-23T04:29:31.873Z,79.88
2019-02-23T04:30:31.861Z,79.50
2019-02-23T04:31:31.831Z,80.26
2019-02-23T04:32:31.816Z,79.88
2019-02-23T04:33:31.798Z,80.36
2019-02-23T04:34:31.783Z,79.79
2019-02-23T04:35:31.762Z,79.60
2019-02-23T04:36:31.754Z,79.41
2019-02-23T04:37:31.731Z,79.50
2019-02-23T04:38:31.714Z,78.85
2019-02-23T04:39:31.697Z,79.03
2019-02-23T04:40:31.676Z,78.65
2019-02-23T04:41:31.663Z,78.85
2019-02-23T04:42:31.641Z,78.56
2019-02-23T04:43:31.626Z,78.75
2019-02-23T04:44:31.605Z,78.75
2019-02-23T04:45:31.593Z,77.99
2019-02-23T04:46:31.573Z,78.27
2019-02-23T04:47:31.559Z,78.18
2019-02-23T04:48:31.541Z,78.37
2019-02-23T04:49:31.517Z,78.37
2019-02-23T04:50:31.506Z,77.99
2019-02-23T04:51:31.513Z,77.80
2019-02-23T04:52:31.469Z,77.70
2019-02-23T04:53:31.455Z,77.89
2019-02-23T04:54:31.436Z,77.89
2019-02-23T04:55:31.415Z,78.18
2019-02-23T04:56:31.399Z,78.18
2019-02-23T04:57:31.384Z,78.37
2019-02-23T04:58:31.366Z,78.56
2019-02-23T04:59:31.351Z,78.65
2019-02-23T05:00:31.335Z,78.46
2019-02-23T05:01:31.313Z,78.37
2019-02-23T05:02:31.295Z,78.18
2019-02-23T05:03:31.276Z,78.08
2019-02-23T05:04:31.260Z,78.18
2019-02-23T05:05:31.245Z,78.18
2019-02-23T05:06:31.226Z,78.18
2019-02-23T05:07:31.208Z,78.37
2019-02-23T05:08:31.195Z,77.70
2019-02-23T05:09:31.185Z,77.51
2019-02-23T05:10:31.158Z,76.57
2019-02-23T05:11:31.140Z,76.76
2019-02-23T05:12:31.126Z,76.67
2019-02-23T05:13:31.108Z,77.14
2019-02-23T05:14:31.087Z,77.42
2019-02-23T05:15:31.076Z,77.10
2019-02-23T05:16:31.056Z,77.51
2019-02-23T05:17:31.037Z,77.76
2019-02-23T05:18:31.020Z,77.61
2019-02-23T05:19:31.002Z,77.67
2019-02-23T05:20:30.989Z,77.58
2019-02-23T05:21:30.967Z,77.51
2019-02-23T05:22:30.948Z,78.18
2019-02-23T05:23:30.930Z,78.05
2019-02-23T05:24:30.912Z,77.70
2019-02-23T05:25:30.897Z,77.51
2019-02-23T05:26:30.879Z,77.04
2019-02-23T05:27:30.860Z,76.53
2019-02-23T05:28:30.842Z,75.87
2019-02-23T05:29:30.829Z,75.21
2019-02-23T05:30:30.806Z,75.68
2019-02-23T05:31:30.795Z,75.53
2019-02-23T05:32:30.772Z,75.49
2019-02-23T05:33:30.756Z,74.93
2019-02-23T05:34:30.740Z,75.05
2019-02-23T05:35:30.717Z,74.77
2019-02-23T05:36:30.701Z,74.96
2019-02-23T05:37:30.687Z,74.77
2019-02-23T05:38:30.669Z,75.05
2019-02-23T05:39:30.650Z,74.87
2019-02-23T05:40:30.635Z,74.87
2019-02-23T05:41:30.618Z,74.93
2019-02-23T05:42:30.597Z,75.02
2019-02-23T05:43:30.578Z,75.31
2019-02-23T05:44:30.568Z,75.31
2019-02-23T05:45:30.547Z,76.25
2019-02-23T05:46:30.537Z,75.96
2019-02-23T05:47:30.523Z,76.06
2019-02-23T05:48:30.503Z,76.63
2019-02-23T05:49:30.476Z,76.91
2019-02-23T05:50:30.462Z,77.48
2019-02-23T05:51:38.397Z,77.39
2019-02-23T05:52:30.427Z,77.67
2019-02-23T05:53:30.496Z,77.67
2019-02-23T05:54:30.389Z,77.76
2019-02-23T05:55:30.368Z,78.33
2019-02-23T05:56:30.353Z,77.76
2019-02-23T05:57:30.331Z,78.23
2019-02-23T05:58:30.314Z,77.95
2019-02-23T05:59:30.309Z,78.33
2019-02-23T06:00:30.283Z,78.23
2019-02-23T06:01:30.264Z,78.80
2019-02-23T06:02:30.247Z,78.80
2019-02-23T06:03:30.231Z,78.80
2019-02-23T06:04:30.207Z,78.71
2019-02-23T06:05:30.195Z,79.47
2019-02-23T06:06:30.175Z,79.94
2019-02-23T06:07:30.158Z,79.56
2019-02-23T06:08:30.145Z,79.18
2019-02-23T06:09:30.125Z,78.99
2019-02-23T06:10:30.099Z,78.99
2019-02-23T06:11:30.078Z,78.61
2019-02-23T06:12:30.079Z,78.61
2019-02-23T06:13:30.047Z,77.39
2019-02-23T06:14:30.031Z,77.29
2019-02-23T06:15:30.032Z,77.39
2019-02-23T06:16:29.998Z,78.42
2019-02-23T06:17:29.978Z,78.33
2019-02-23T06:18:29.961Z,78.14
2019-02-23T06:19:29.951Z,78.61
2019-02-23T06:20:29.927Z,78.61
2019-02-23T06:21:29.907Z,78.61
2019-02-23T06:22:29.889Z,78.46
2019-02-23T06:23:29.875Z,78.18
2019-02-23T06:24:29.852Z,78.27
2019-02-23T06:25:29.838Z,77.23
2019-02-23T06:26:29.819Z,77.58
2019-02-23T06:27:29.796Z,77.48
2019-02-23T06:28:29.784Z,77.67
2019-02-23T06:29:29.770Z,77.67
2019-02-23T06:30:29.748Z,77.67
2019-02-23T06:31:29.733Z,77.39
2019-02-23T06:32:29.709Z,77.39
2019-02-23T06:33:29.697Z,77.58
2019-02-23T06:34:29.679Z,77.10
2019-02-23T06:35:29.655Z,77.39
2019-02-23T06:36:29.642Z,77.29
2019-02-23T06:37:29.625Z,77.76
2019-02-23T06:38:29.607Z,77.39
2019-02-23T06:39:29.589Z,76.72
2019-02-23T06:40:29.570Z,76.25
2019-02-23T06:41:29.550Z,76.15
2019-02-23T06:42:29.542Z,76.15
2019-02-23T06:43:29.515Z,76.72
2019-02-23T06:44:29.502Z,76.82
2019-02-23T06:45:29.475Z,76.91
2019-02-23T06:46:29.460Z,77.76
2019-02-23T06:47:29.444Z,77.39
2019-02-23T06:48:29.422Z,77.10
2019-02-23T06:49:29.408Z,77.67
2019-02-23T06:50:29.388Z,77.29
2019-02-23T06:51:29.371Z,77.01
2019-02-23T06:52:29.355Z,76.72
2019-02-23T06:53:29.345Z,76.86
2019-02-23T06:54:29.321Z,76.34
2019-02-23T06:55:29.299Z,76.44
2019-02-23T06:56:29.287Z,76.34
2019-02-23T06:57:29.267Z,75.78
2019-02-23T06:58:29.248Z,75.87
2019-02-23T06:59:29.233Z,75.78
2019-02-23T07:00:29.211Z,75.81
2019-02-23T07:01:29.200Z,75.72
2019-02-23T07:02:29.179Z,74.68
2019-02-23T07:03:29.159Z,73.83
2019-02-23T07:04:29.147Z,73.13
2019-02-23T07:05:29.125Z,73.16
2019-02-23T07:06:29.107Z,72.22
2019-02-23T07:07:29.091Z,71.42
2019-02-23T07:08:29.071Z,71.36
2019-02-23T07:09:29.051Z,72.31
2019-02-23T07:10:29.037Z,72.50
2019-02-23T07:11:29.021Z,73.26
2019-02-23T07:12:29.022Z,72.78
2019-02-23T07:13:28.984Z,72.75
2019-02-23T07:14:28.966Z,72.78
2019-02-23T07:15:28.948Z,73.26
2019-02-23T07:16:28.933Z,72.94
2019-02-23T07:17:28.911Z,73.73
2019-02-23T07:18:28.899Z,73.45
2019-02-23T07:19:28.884Z,74.02
2019-02-23T07:20:28.859Z,74.02
2019-02-23T07:21:28.843Z,73.64
2019-02-23T07:22:28.822Z,73.73
2019-02-23T07:23:28.806Z,72.88
2019-02-23T07:24:28.791Z,73.35
2019-02-23T07:25:28.775Z,73.92
2019-02-23T07:26:28.752Z,73.83
2019-02-23T07:27:28.732Z,73.73
2019-02-23T07:28:28.789Z,72.97
2019-02-23T07:29:28.705Z,72.78
2019-02-23T07:30:28.683Z,73.26
2019-02-23T07:31:28.666Z,73.54
2019-02-23T07:32:28.645Z,73.64
2019-02-23T07:33:32.884Z,73.35
2019-02-23T07:34:28.612Z,73.64
2019-02-23T07:35:28.601Z,73.73
2019-02-23T07:36:28.577Z,73.54
2019-02-23T07:37:28.559Z,73.64
2019-02-23T07:38:28.542Z,73.26
2019-02-23T07:39:28.529Z,70.32
2019-02-23T07:40:28.514Z,68.75
2019-02-23T07:41:28.509Z,67.86
2019-02-23T07:42:28.467Z,67.61
2019-02-23T07:43:28.452Z,67.14
2019-02-23T07:44:28.439Z,67.33
2019-02-23T07:45:28.420Z,67.33
2019-02-23T07:46:28.399Z,67.43
2019-02-23T07:47:28.386Z,67.43
2019-02-23T07:48:28.367Z,67.27
2019-02-23T07:49:28.349Z,67.33
2019-02-23T07:50:28.337Z,66.89
2019-02-23T07:51:28.317Z,66.80
2019-02-23T07:52:28.298Z,65.56
2019-02-23T07:53:28.278Z,80.43
2019-02-23T07:54:28.262Z,99.99
2019-02-23T07:55:28.248Z,92.47
2019-02-23T07:56:28.223Z,73.71
2019-02-23T07:57:28.212Z,64.94
2019-02-23T07:58:28.195Z,60.47
2019-02-23T07:59:28.184Z,58.67
2019-02-23T08:00:28.161Z,58.20
2019-02-23T08:01:28.156Z,58.76
2019-02-23T08:02:28.122Z,58.95
2019-02-23T08:03:28.105Z,59.62
2019-02-23T08:04:28.091Z,59.62
2019-02-23T08:05:28.084Z,59.62
2019-02-23T08:06:28.056Z,57.81
2019-02-23T08:07:28.045Z,57.40
2019-02-23T08:08:28.026Z,57.98
2019-02-23T08:09:28.013Z,58.36
2019-02-23T08:10:28.001Z,59.49
2019-02-23T08:11:27.974Z,60.35
2019-02-23T08:12:27.959Z,60.92
2019-02-23T08:13:27.953Z,61.20
2019-02-23T08:14:27.977Z,61.30
2019-02-23T08:15:27.907Z,61.77
2019-02-23T08:16:27.896Z,61.58
2019-02-23T08:17:27.875Z,60.63
2019-02-23T08:18:28.737Z,78.55
2019-02-23T08:19:27.850Z,81.29
2019-02-23T08:20:27.832Z,71.44
2019-02-23T08:21:28.738Z,70.81
2019-02-23T08:22:37.100Z,68.08
2019-02-23T08:23:28.739Z,58.75
2019-02-23T08:24:27.774Z,57.51
2019-02-23T08:25:27.760Z,59.80
2019-02-23T08:26:27.745Z,59.92
2019-02-23T08:27:27.723Z,60.84
2019-02-23T08:28:27.707Z,57.50
2019-02-23T08:29:27.692Z,55.82
2019-02-23T08:30:27.672Z,54.38
2019-02-23T08:31:27.654Z,52.38
2019-02-23T08:32:27.643Z,52.19
2019-02-23T08:33:27.628Z,51.14
2019-02-23T08:34:27.618Z,47.71
2019-02-23T08:35:27.601Z,50.85
2019-02-23T08:36:27.605Z,51.07
2019-02-23T08:37:27.572Z,50.78
2019-02-23T08:38:27.558Z,48.68
2019-02-23T08:39:27.537Z,48.49
2019-02-23T08:40:27.523Z,47.73
2019-02-23T08:41:27.519Z,47.44
2019-02-23T08:42:27.505Z,48.02
2019-02-23T08:43:27.483Z,48.30
2019-02-23T08:44:27.466Z,49.54
2019-02-23T08:45:27.456Z,48.11
2019-02-23T08:46:27.436Z,46.99
2019-02-23T08:47:27.424Z,44.58
2019-02-23T08:48:27.421Z,46.30
2019-02-23T08:49:27.395Z,45.53
2019-02-23T08:50:27.388Z,48.04
2019-02-23T08:51:27.367Z,46.42
2019-02-23T08:52:27.358Z,46.42
2019-02-23T08:53:27.337Z,45.67
2019-02-23T08:54:27.327Z,44.53
2019-02-23T08:55:27.312Z,44.24
2019-02-23T08:56:27.302Z,44.43
2019-02-23T08:57:27.291Z,44.53
2019-02-23T08:58:27.269Z,44.12
2019-02-23T08:59:27.261Z,44.60
2019-02-23T09:00:27.268Z,44.02
2019-02-23T09:01:27.229Z,41.93
2019-02-23T09:02:27.214Z,40.59
2019-02-23T09:03:27.201Z,40.86
2019-02-23T09:04:27.190Z,41.52
2019-02-23T09:05:27.176Z,41.81
2019-02-23T09:06:27.159Z,41.88
2019-02-23T09:07:27.150Z,42.08
2019-02-23T09:08:27.132Z,42.15
2019-02-23T09:09:27.120Z,42.44
2019-02-23T09:10:27.109Z,43.39
2019-02-23T09:11:27.092Z,43.39
2019-02-23T09:12:27.083Z,43.68
2019-02-23T09:13:27.076Z,43.87
2019-02-23T09:14:27.056Z,44.34
2019-02-23T09:15:27.043Z,44.42
2019-02-23T09:16:27.029Z,44.70
2019-02-23T09:17:27.018Z,44.42
2019-02-23T09:18:27.000Z,44.42
2019-02-23T09:19:26.987Z,43.94
2019-02-23T09:20:29.464Z,44.42
2019-02-23T09:21:26.964Z,44.32
2019-02-23T09:22:26.945Z,44.51
2019-02-23T09:23:26.935Z,45.08
2019-02-23T09:24:26.933Z,44.13
2019-02-23T09:25:26.905Z,43.94
2019-02-23T09:26:26.891Z,43.37
2019-02-23T09:27:26.882Z,42.89
2019-02-23T09:28:26.883Z,42.89
2019-02-23T09:29:26.859Z,43.37
2019-02-23T09:30:26.851Z,43.75
2019-02-23T09:31:26.835Z,44.13
2019-02-23T09:32:26.816Z,43.56
2019-02-23T09:33:26.806Z,43.18
2019-02-23T09:34:26.793Z,42.80
2019-02-23T09:35:26.780Z,42.80
2019-02-23T09:36:26.772Z,42.41
2019-02-23T09:37:26.757Z,42.41
2019-02-23T09:38:26.743Z,42.13
2019-02-23T09:39:26.735Z,41.96
2019-02-23T09:40:26.719Z,41.46
2019-02-23T09:41:26.703Z,41.67
2019-02-23T09:42:26.685Z,41.96
2019-02-23T09:43:26.674Z,41.67
2019-02-23T09:44:26.686Z,40.24
2019-02-23T09:45:26.654Z,39.48
2019-02-23T09:46:26.679Z,39.39
2019-02-23T09:47:26.626Z,39.10
2019-02-23T09:48:26.612Z,39.10
2019-02-23T09:49:26.605Z,38.81
2019-02-23T09:50:26.591Z,39.58
2019-02-23T09:51:26.577Z,39.12
2019-02-23T09:52:26.572Z,38.83
2019-02-23T09:53:26.555Z,38.83
2019-02-23T09:54:26.542Z,38.26
2019-02-23T09:55:26.522Z,38.45
2019-02-23T09:56:26.520Z,38.26
2019-02-23T09:57:26.506Z,38.05
2019-02-23T09:58:26.504Z,38.24
2019-02-23T09:59:26.481Z,38.71
2019-02-23T10:00:26.474Z,39.29
2019-02-23T10:01:26.460Z,39.00
2019-02-23T10:02:26.441Z,38.73
2019-02-23T10:03:26.434Z,38.45
2019-02-23T10:04:26.421Z,38.45
2019-02-23T10:05:26.407Z,38.45
2019-02-23T10:06:26.398Z,38.28
2019-02-23T10:07:26.386Z,38.37
2019-02-23T10:08:26.372Z,38.28
2019-02-23T10:09:26.361Z,38.17
2019-02-23T10:10:26.344Z,37.97
2019-02-23T10:11:26.335Z,38.05
2019-02-23T10:12:26.323Z,39.00
2019-02-23T10:13:26.312Z,39.48
2019-02-23T10:14:26.303Z,40.24
2019-02-23T10:15:26.291Z,39.95
2019-02-23T10:16:26.273Z,39.95
2019-02-23T10:17:26.263Z,39.50
2019-02-23T10:18:26.253Z,39.02
2019-02-23T10:19:26.240Z,38.26
2019-02-23T10:20:26.228Z,37.99
2019-02-23T10:21:26.218Z,37.23
2019-02-23T10:22:26.202Z,36.75
2019-02-23T10:23:26.196Z,35.41
2019-02-23T10:24:26.178Z,35.32
2019-02-23T10:25:26.166Z,35.24
2019-02-23T10:26:26.167Z,35.24
2019-02-23T10:27:26.150Z,34.57
2019-02-23T10:28:26.136Z,34.86
2019-02-23T10:29:26.124Z,34.69
2019-02-23T10:30:26.108Z,34.59
2019-02-23T10:31:26.099Z,34.49
2019-02-23T10:32:26.086Z,34.20
2019-02-23T10:33:26.079Z,34.11
2019-02-23T10:34:26.062Z,34.20
2019-02-23T10:35:26.056Z,34.69
2019-02-23T10:36:26.052Z,35.55
2019-02-23T10:37:26.032Z,35.28
2019-02-23T10:38:26.017Z,34.70
2019-02-23T10:39:26.007Z,34.13
2019-02-23T10:40:25.999Z,34.42
2019-02-23T10:41:25.989Z,33.75
2019-02-23T10:42:25.973Z,34.51
2019-02-23T10:43:25.969Z,34.61
2019-02-23T10:44:25.957Z,34.70
2019-02-23T10:45:25.945Z,34.13
2019-02-23T10:46:25.930Z,34.22
2019-02-23T10:47:25.922Z,34.22
2019-02-23T10:48:25.909Z,34.13
2019-02-23T10:49:25.901Z,34.43
2019-02-23T10:50:25.891Z,35.49
2019-02-23T10:51:25.874Z,35.29
2019-02-23T10:52:25.868Z,35.49
2019-02-23T10:53:32.892Z,34.26
2019-02-23T10:54:25.847Z,34.55
2019-02-23T10:55:25.843Z,33.87
2019-02-23T10:56:25.824Z,34.45
2019-02-23T10:57:25.814Z,34.26
2019-02-23T10:58:25.803Z,34.26
2019-02-23T10:59:25.787Z,34.06
2019-02-23T11:00:25.782Z,33.49
2019-02-23T11:01:25.768Z,33.59
2019-02-23T11:02:25.757Z,33.01
2019-02-23T11:03:25.755Z,33.20
2019-02-23T11:04:25.741Z,33.51
2019-02-23T11:05:25.729Z,33.22
2019-02-23T11:06:25.715Z,33.99
2019-02-23T11:07:25.707Z,33.41
2019-02-23T11:08:25.695Z,33.14
2019-02-23T11:09:25.691Z,32.57
2019-02-23T11:10:25.676Z,32.17
2019-02-23T11:11:25.671Z,31.99
2019-02-23T11:12:25.657Z,31.80
2019-02-23T11:13:25.651Z,31.61
2019-02-23T11:14:25.641Z,31.90
2019-02-23T11:15:25.631Z,32.18
2019-02-23T11:16:25.616Z,32.18
2019-02-23T11:17:25.610Z,32.18
2019-02-23T11:18:25.601Z,32.76
2019-02-23T11:19:25.590Z,31.99
2019-02-23T11:20:25.582Z,31.51
2019-02-23T11:21:25.569Z,31.15
2019-02-23T11:22:25.557Z,31.32
2019-02-23T11:23:25.549Z,31.32
2019-02-23T11:24:25.545Z,31.51
2019-02-23T11:25:25.535Z,31.79
2019-02-23T11:26:25.524Z,32.07
2019-02-23T11:27:25.514Z,32.06
2019-02-23T11:28:25.506Z,32.73
2019-02-23T11:29:25.499Z,33.20
2019-02-23T11:30:25.475Z,33.32
2019-02-23T11:31:25.478Z,32.84
2019-02-23T11:32:25.463Z,33.22
2019-02-23T11:33:25.455Z,33.32
2019-02-23T11:34:25.448Z,33.04
2019-02-23T11:35:25.439Z,32.57
2019-02-23T11:36:25.426Z,32.10
2019-02-23T11:37:25.418Z,32.10
2019-02-23T11:38:25.407Z,31.64
2019-02-23T11:39:25.407Z,31.35
2019-02-23T11:40:25.390Z,30.49
2019-02-23T11:41:25.376Z,29.91
2019-02-23T11:42:25.373Z,29.72
2019-02-23T11:43:25.357Z,29.44
2019-02-23T11:44:25.353Z,29.63
2019-02-23T11:45:25.341Z,30.30
2019-02-23T11:46:25.339Z,30.30
2019-02-23T11:47:25.323Z,30.58
2019-02-23T11:48:25.313Z,31.16
2019-02-23T11:49:25.307Z,31.66
2019-02-23T11:50:25.298Z,31.37
2019-02-23T11:51:25.284Z,30.79
2019-02-23T11:52:25.276Z,30.70
2019-02-23T11:53:25.270Z,30.43
2019-02-23T11:54:25.272Z,30.14
2019-02-23T11:55:25.248Z,29.66
2019-02-23T11:56:25.242Z,29.77
2019-02-23T11:57:25.263Z,28.61
2019-02-23T11:58:25.227Z,28.23
2019-02-23T11:59:25.213Z,28.23
2019-02-23T12:00:25.209Z,27.84
2019-02-23T12:01:25.197Z,27.94
2019-02-23T12:02:25.188Z,27.45
2019-02-23T12:03:25.178Z,28.61
2019-02-23T12:04:25.175Z,28.42
2019-02-23T12:05:25.166Z,28.23
2019-02-23T12:06:25.226Z,28.52
2019-02-23T12:07:25.156Z,28.71
2019-02-23T12:08:25.145Z,27.37
2019-02-23T12:09:25.125Z,27.56
2019-02-23T12:10:25.124Z,27.37
2019-02-23T12:11:25.115Z,27.86
2019-02-23T12:12:25.107Z,27.28
2019-02-23T12:13:25.100Z,27.37
2019-02-23T12:14:25.968Z,27.56
2019-02-23T12:15:25.078Z,27.76
2019-02-23T12:16:25.070Z,27.76
2019-02-23T12:17:25.069Z,28.44
2019-02-23T12:18:25.056Z,27.76
2019-02-23T12:19:25.054Z,27.48
2019-02-23T12:20:25.040Z,27.48
2019-02-23T12:21:25.032Z,28.15
2019-02-23T12:22:25.029Z,28.26
2019-02-23T12:23:25.020Z,27.59
2019-02-23T12:24:25.018Z,27.48
2019-02-23T12:25:25.004Z,27.28
2019-02-23T12:26:24.996Z,27.58
2019-02-23T12:27:24.982Z,27.95
2019-02-23T12:28:24.988Z,27.67
2019-02-23T12:29:24.978Z,27.38
2019-02-23T12:30:24.960Z,27.56
2019-02-23T12:31:24.954Z,28.23
2019-02-23T12:32:24.950Z,28.41
2019-02-23T12:33:24.936Z,29.10
2019-02-23T12:34:24.932Z,29.56
2019-02-23T12:35:24.916Z,29.56
2019-02-23T12:36:24.912Z,29.85
2019-02-23T12:37:24.902Z,30.23
2019-02-23T12:38:24.897Z,30.23
2019-02-23T12:39:24.889Z,30.44
2019-02-23T12:40:24.887Z,29.96
2019-02-23T12:41:24.875Z,28.82
2019-02-23T12:42:27.345Z,28.44
2019-02-23T12:43:24.859Z,28.82
2019-02-23T12:44:24.851Z,28.72
2019-02-23T12:45:24.851Z,28.64
2019-02-23T12:46:24.830Z,28.74
2019-02-23T12:47:24.826Z,27.59
2019-02-23T12:48:24.818Z,28.26
2019-02-23T12:49:24.804Z,28.36
2019-02-23T12:50:24.804Z,27.95
2019-02-23T12:51:24.798Z,28.63
2019-02-23T12:52:24.789Z,28.53